Buckeye Village, Ohio
Current Conditions -  °F | °C
As of 1:52 PM on Sunday 21 Dec 2014 (Local Time) from KMFD Reporting Station
Clear Clear  
Wind Chill: 34°   Ceiling: Unl
Heat Index: 34°   Visibility: 10mi
Dew Point: 21°   Wind: 3mph
Humidity: 59%   Direction: 110°ESE
Pressure: 30.21"   Gusts: NA
Location:  41.0654°N, 82.876°W
Report Text: KMFD 211852Z 11003KT 10SM CLR 01/M06 A3021 RMK AO2 SLP245 T00111061
Loading
Personal Weather Stations






























Interactive Weather Map New forecast layout! Learn more

10-Day Weather Forecast

Advertisements
Track Severe Weather on mobile